Latest Weather Observations for Gosford

IDN60901

Issued at 11:41 pm EDT Saturday 13 February 2016 (issued every 10 minutes, with the page automatically refreshed every 10 minutes)

About weather observations | Map of Sydney area stations | Latest observations for Sydney area | Other Formats
Station Details ID: 061425 Name: GOSFORD AWS Lat: -33.44 Lon: 151.36 Height: 7.0 m
Data from the previous 72 hours. | See also: Recent months at Gosford
Date/Time
EDT
Tmp

°C
App
Tmp
°C
Dew
Point
°C
Rel
Hum
%
Delta-T

°C
Wind Press
QNH
hPa
Press
MSL
hPa
Rain
since
9 am
mm
Dir
 
Spd
km/h
Gust
km/h
Spd
kts
Gust
kts
13/11:30pm 21.4 23.9 19.1 87 1.5 ENE 4 6 2 3 - - 0.0
13/11:00pm 22.0 25.0 19.2 84 1.8 NE 2 6 1 3 - - 0.0
13/10:30pm 22.3 24.4 18.9 81 2.1 NE 6 7 3 4 - - 0.0
13/10:00pm 23.1 25.3 19.1 78 2.5 NNE 6 11 3 6 - - 0.0
13/09:30pm 23.4 25.5 18.9 76 2.9 NNE 6 13 3 7 - - 0.0
13/09:00pm 23.4 24.9 18.9 76 2.9 NE 9 13 5 7 - - 0.0
13/08:30pm 23.9 25.4 19.0 74 3.1 NE 9 15 5 8 - - 0.0
13/08:00pm 23.9 25.7 18.8 73 3.2 NE 7 13 4 7 - - 0.0
13/07:30pm 24.5 25.7 19.1 72 3.4 NE 11 20 6 11 - - 0.0
13/07:00pm 25.0 26.0 19.4 71 3.6 NE 13 22 7 12 - - 0.0
13/06:30pm 25.4 25.2 19.3 69 3.9 ENE 19 28 10 15 - - 0.0
13/06:00pm 26.5 27.7 19.9 67 4.3 ENE 13 22 7 12 - - 0.0
13/05:30pm 26.9 27.9 19.5 64 4.8 NE 13 20 7 11 - - 0.0
13/05:00pm 27.1 27.2 19.2 62 5.1 ENE 17 24 9 13 - - 0.0
13/04:30pm 27.6 28.3 19.7 62 5.1 ENE 15 22 8 12 - - 0.0
13/04:00pm 27.6 28.3 19.7 62 5.1 ENE 15 24 8 13 - - 0.0
13/03:30pm 27.6 27.7 19.1 59 5.5 ENE 17 24 9 13 - - 0.0
13/03:00pm 27.8 27.2 18.8 58 5.8 E 20 28 11 15 - - 0.0
13/02:30pm 28.4 28.9 19.3 57 5.9 E 15 22 8 12 - - 0.0
13/02:00pm 29.0 30.2 19.9 58 6.0 ENE 13 20 7 11 - - 0.0
13/01:30pm 28.2 29.2 18.6 56 6.2 ENE 11 20 6 11 - - 0.0
13/01:00pm 28.3 30.0 18.4 55 6.3 NE 7 13 4 7 - - 0.0
13/12:30pm 27.9 29.5 18.3 56 6.1 NE 7 17 4 9 - - 0.0
13/12:00pm 27.8 29.0 18.2 56 6.1 NNE 9 19 5 10 - - 0.0
13/11:30am 26.9 28.0 17.9 57 5.7 N 9 17 5 9 - - 0.0
13/11:00am 26.5 27.5 18.6 62 5.0 NNE 11 17 6 9 - - 0.0
13/10:30am 25.6 26.9 18.5 65 4.5 NNE 9 17 5 9 - - 0.0
13/10:00am 25.3 26.7 18.7 67 4.2 N 9 20 5 11 - - 0.0
13/09:30am 24.2 26.1 18.6 71 3.5 NNE 6 15 3 8 - - 0.0
13/09:00am 23.8 25.3 18.9 74 3.1 N 9 17 5 9 - - 0.0
13/08:30am 23.1 25.6 19.1 78 2.5 NNE 4 7 2 4 - - 0.0
13/08:00am 21.5 24.8 19.1 86 1.5 CALM 0 0 0 0 - - 0.0
13/07:30am 20.3 23.6 19.1 93 0.8 CALM 0 0 0 0 - - 0.0
13/07:00am 18.7 21.5 17.9 95 0.5 CALM 0 0 0 0 - - 0.0
13/06:30am 18.6 21.3 17.8 95 0.5 CALM 0 0 0 0 - - 0.0
13/06:00am 18.7 21.4 17.7 94 0.6 CALM 0 0 0 0 - - 0.0
13/05:30am 18.9 21.7 17.9 94 0.6 CALM 0 0 0 0 - - 0.0
13/05:00am 19.2 22.0 18.0 93 0.7 CALM 0 0 0 0 - - 0.0
13/04:30am 19.5 22.4 18.3 93 0.7 CALM 0 0 0 0 - - 0.0
13/04:00am 19.9 23.0 18.7 93 0.7 CALM 0 0 0 0 - - 0.0
13/03:30am 20.0 23.0 18.5 91 0.9 CALM 0 0 0 0 - - 0.0
13/03:00am 20.5 23.7 18.8 90 1.1 CALM 0 0 0 0 - - 0.0
13/02:30am 21.1 24.0 19.0 88 1.3 N 2 4 1 2 - - 0.0
13/02:00am 21.7 24.7 19.3 86 1.5 N 2 4 1 2 - - 0.0
13/01:30am 21.9 25.2 19.1 84 1.8 CALM 0 2 0 1 - - 0.0
13/01:00am 22.5 24.7 19.3 82 2.0 NE 6 9 3 5 - - 0.0
13/12:30am 22.7 24.8 19.3 81 2.2 ENE 7 15 4 8 - - 0.0
13/12:00am 23.1 24.9 19.5 80 2.3 NE 9 19 5 10 - - 0.0
 
Date/Time
EDT
Tmp

°C
App
Tmp
°C
Dew
Point
°C
Rel
Hum
%
Delta-T

°C
Wind Press
QNH
hPa
Press
MSL
hPa
Rain
since
9 am
mm
Dir
 
Spd
km/h
Gust
km/h
Spd
kts
Gust
kts
12/11:30pm 23.1 25.0 19.7 81 2.2 ENE 9 19 5 10 - - 0.0
12/11:00pm 22.9 25.1 19.7 82 2.1 NE 7 13 4 7 - - 0.0
12/10:30pm 23.1 25.3 19.7 81 2.2 NE 7 15 4 8 - - 0.0
12/10:00pm 22.5 24.7 19.3 82 2.0 ENE 6 9 3 5 - - 0.0
12/09:30pm 22.5 24.7 19.1 81 2.2 ENE 6 9 3 5 - - 0.0
12/09:00pm 23.0 25.2 19.2 79 2.4 NE 6 9 3 5 - - 0.0
12/08:30pm 23.1 25.3 19.1 78 2.5 NE 6 9 3 5 - - 0.0
12/08:00pm 23.6 25.8 19.1 76 2.9 NE 6 7 3 4 - - 0.0
12/07:30pm 24.5 26.2 19.3 73 3.3 ENE 9 15 5 8 - - 0.0
12/07:00pm 25.1 26.9 19.5 71 3.6 ENE 9 17 5 9 - - 0.0
12/06:30pm 25.6 27.0 19.5 69 3.9 ENE 11 20 6 11 - - 0.0
12/06:00pm 25.8 26.9 19.7 69 3.9 E 13 20 7 11 - - 0.0
12/05:30pm 26.1 27.1 19.5 67 4.3 E 13 17 7 9 - - 0.0
12/05:00pm 26.3 26.8 19.2 65 4.6 E 15 26 8 14 - - 0.0
12/04:30pm 26.2 26.5 19.6 67 4.3 E 17 26 9 14 - - 0.0
12/04:00pm 26.6 27.1 19.2 64 4.8 E 15 20 8 11 - - 0.0
12/03:30pm 26.6 26.6 19.0 63 4.9 E 17 26 9 14 - - 0.0
12/03:00pm 27.4 27.9 19.2 61 5.3 E 15 22 8 12 - - 0.0
12/02:30pm 27.1 27.2 18.4 59 5.5 E 15 24 8 13 - - 0.0
12/02:00pm 27.4 27.5 18.4 58 5.7 E 15 24 8 13 - - 0.0
12/01:30pm 27.8 28.6 18.2 56 6.1 ENE 11 19 6 10 - - 0.0
12/01:00pm 27.3 27.4 17.5 55 6.2 ENE 13 24 7 13 - - 0.0
12/12:30pm 28.1 29.2 19.6 60 5.5 E 13 20 7 11 - - 0.0
12/12:00pm 27.6 29.5 18.9 59 5.6 E 7 15 4 8 - - 0.0
12/11:30am 27.4 29.4 18.7 59 5.6 ESE 6 11 3 6 - - 0.0
12/11:00am 26.7 28.1 18.6 61 5.2 ENE 9 15 5 8 - - 0.0
12/10:30am 25.9 27.3 17.8 61 5.1 ENE 7 13 4 7 - - 0.0
12/10:00am 25.5 28.2 19.4 69 3.9 WNW 4 6 2 3 - - 0.0
12/09:30am 24.5 27.2 18.7 70 3.7 NNW 2 6 1 3 - - 0.0
12/09:00am 24.2 27.3 19.5 75 3.0 SE 2 4 1 2 - - 0.0
12/08:30am 23.0 26.8 20.1 84 1.9 CALM 0 2 0 1 - - 0.0
12/08:00am 21.2 24.8 19.7 91 1.0 CALM 0 0 0 0 - - 0.0
12/07:30am 20.3 23.8 19.5 95 0.5 CALM 0 0 0 0 - - 0.0
12/07:00am 19.1 22.1 18.4 96 0.4 CALM 0 0 0 0 - - 0.0
12/06:30am 19.0 21.9 18.2 95 0.5 CALM 0 0 0 0 - - 0.0
12/06:00am 19.2 22.2 18.4 95 0.5 CALM 0 0 0 0 - - 0.0
12/05:30am 19.3 22.2 18.3 94 0.6 CALM 0 2 0 1 - - 0.0
12/05:00am 19.9 22.8 19.1 95 0.5 NE 2 4 1 2 - - 0.0
12/04:30am 20.0 22.5 19.0 94 0.6 NE 4 4 2 2 - - 0.0
12/04:00am 20.0 23.1 18.7 92 0.8 CALM 0 0 0 0 - - 0.0
12/03:30am 20.5 23.5 19.3 93 0.8 NE 2 6 1 3 - - 0.0
12/03:00am 20.5 23.8 19.2 92 0.8 CALM 0 0 0 0 - - 0.0
12/02:30am 20.8 24.2 19.3 91 0.9 CALM 0 0 0 0 - - 0.0
12/02:00am 21.2 24.4 19.7 91 1.0 ESE 2 6 1 3 - - 0.0
12/01:30am 21.1 24.6 19.6 91 1.0 CALM 0 6 0 3 - - 0.0
12/01:00am 21.2 24.0 19.7 91 1.0 NE 4 6 2 3 - - 0.0
12/12:30am 21.4 24.9 19.5 89 1.2 CALM 0 0 0 0 - - 0.0
12/12:00am 21.9 25.4 19.5 86 1.5 CALM 0 0 0 0 - - 0.0
 
Date/Time
EDT
Tmp

°C
App
Tmp
°C
Dew
Point
°C
Rel
Hum
%
Delta-T

°C
Wind Press
QNH
hPa
Press
MSL
hPa
Rain
since
9 am
mm
Dir
 
Spd
km/h
Gust
km/h
Spd
kts
Gust
kts
11/11:30pm 22.6 25.1 19.8 84 1.8 ENE 6 7 3 4 - - 0.0
11/11:00pm 22.5 25.7 19.7 84 1.8 NE 2 6 1 3 - - 0.0
11/10:30pm 22.6 24.9 19.8 84 1.8 ENE 7 11 4 6 - - 0.0
11/10:00pm 23.0 26.5 19.6 81 2.2 CALM 0 0 0 0 - - 0.0
11/09:30pm 23.1 25.8 19.5 80 2.3 ENE 4 7 2 4 - - 0.0
11/09:00pm 23.0 25.3 19.4 80 2.3 ENE 6 9 3 5 - - 0.0
11/08:30pm 23.3 25.9 19.2 78 2.6 NE 4 6 2 3 - - 0.0
11/08:00pm 23.8 26.8 19.3 76 2.9 NNE 2 6 1 3 - - 0.0
11/07:30pm 24.2 26.4 19.3 74 3.1 ENE 6 7 3 4 - - 0.0
11/07:00pm 24.4 26.8 19.7 75 3.0 ENE 6 11 3 6 - - 0.0
11/06:30pm 24.6 26.6 19.9 75 3.0 E 9 15 5 8 - - 0.0
11/06:00pm 25.0 26.8 19.6 72 3.5 E 9 19 5 10 - - 0.0
11/05:30pm 25.8 26.9 19.7 69 3.9 ENE 13 20 7 11 - - 0.0
11/05:00pm 25.9 27.1 19.8 69 4.0 ENE 13 24 7 13 - - 0.0
11/04:30pm 25.4 25.7 18.8 67 4.2 E 15 22 8 12 - - 0.0
11/04:00pm 26.0 26.4 18.9 65 4.5 E 15 22 8 12 - - 0.0
11/03:30pm 26.2 26.4 18.6 63 4.8 E 15 24 8 13 - - 0.0
11/03:00pm 26.7 27.4 18.8 62 5.1 E 13 22 7 12 - - 0.0
11/02:30pm 26.8 26.7 17.8 57 5.7 E 15 22 8 12 - - 0.0
11/02:00pm 27.6 28.3 18.0 55 6.1 E 11 19 6 10 - - 0.0
11/01:30pm 26.9 27.1 16.8 54 6.3 ENE 11 17 6 9 - - 0.0
11/01:00pm 26.9 28.3 18.7 60 5.2 E 9 19 5 10 - - 0.0
11/12:30pm 26.4 27.2 19.0 63 4.7 E 13 20 7 11 - - 0.0
11/12:00pm 26.0 26.5 18.4 63 4.8 ESE 13 22 7 12 - - 0.0
11/11:30am 26.4 27.1 18.8 63 4.9 E 13 19 7 10 - - 0.0
11/11:00am 26.0 26.9 18.4 63 4.8 ENE 11 17 6 9 - - 0.0
11/10:30am 25.8 25.9 16.6 56 5.7 ENE 11 19 6 10 - - 0.0
11/10:00am 25.6 28.4 18.8 66 4.3 WNW 2 9 1 5 - - 0.0
11/09:30am 24.4 27.2 18.8 71 3.6 SSE 2 6 1 3 - - 0.0
11/09:00am 22.7 25.0 18.5 77 2.6 S 4 6 2 3 - - 0.0
11/08:30am 21.8 24.9 18.6 82 2.0 CALM 0 0 0 0 - - 0.0
11/08:00am 20.4 23.3 18.3 88 1.3 CALM 0 0 0 0 - - 0.0
11/07:30am 18.6 21.2 17.6 94 0.6 CALM 0 0 0 0 - - 0.0
11/07:00am 17.2 19.4 16.4 95 0.5 CALM 0 0 0 0 - - 0.0
11/06:30am 16.8 18.8 16.0 95 0.5 CALM 0 0 0 0 - - 0.0
11/06:00am 17.0 19.1 16.2 95 0.5 CALM 0 0 0 0 - - 0.0
11/05:30am 17.2 19.3 16.2 94 0.6 CALM 0 0 0 0 - - 0.0
11/05:00am 17.3 19.4 16.3 94 0.6 CALM 0 0 0 0 - - 0.0
11/04:30am 17.6 19.8 16.6 94 0.6 CALM 0 0 0 0 - - 0.0
11/04:00am 17.7 19.9 16.6 93 0.7 CALM 0 0 0 0 - - 0.0
11/03:30am 17.9 20.1 16.6 92 0.8 CALM 0 0 0 0 - - 0.0
11/03:00am 18.0 20.2 16.5 91 0.9 CALM 0 0 0 0 - - 0.0
11/02:30am 18.6 21.0 17.1 91 0.9 CALM 0 0 0 0 - - 0.0
11/02:00am 18.9 21.4 17.2 90 1.0 CALM 0 0 0 0 - - 0.0
11/01:30am 18.9 21.3 17.0 89 1.1 CALM 0 0 0 0 - - 0.0
11/01:00am 19.0 21.0 17.0 88 1.2 ENE 2 6 1 3 - - 0.0
11/12:30am 19.4 21.0 17.0 86 1.5 NE 4 6 2 3 - - 0.0
11/12:00am 19.8 21.4 17.0 84 1.7 NE 4 6 2 3 - - 0.0

Latest Capital City Observations: Canberra | Sydney | Melbourne | Brisbane | Adelaide | Perth | Hobart | Darwin

Other Formats:

Comma delimited format used in spreadsheet applications
http://www.bom.gov.au/fwo/IDN60901/IDN60901.94782.axf

JavaScript Object Notation format (JSON) in row-major order
http://www.bom.gov.au/fwo/IDN60901/IDN60901.94782.json